sensor_id;sensor_type;location;lat;lon;timestamp;pressure;altitude;pressure_sealevel;temperature;humidity
21863;BME280;11096;51.338;12.524;2023-03-26T00:02:22;99076.59;;;11.07;nan
21863;BME280;11096;51.338;12.524;2023-03-26T00:04:47;99093.72;;;11.29;nan
21863;BME280;11096;51.338;12.524;2023-03-26T00:07:14;99082.09;;;11.43;nan
21863;BME280;11096;51.338;12.524;2023-03-26T00:09:40;99090.44;;;11.36;nan
21863;BME280;11096;51.338;12.524;2023-03-26T00:12:05;99091.13;;;11.58;nan
21863;BME280;11096;51.338;12.524;2023-03-26T00:14:31;99087.16;;;11.54;nan
21863;BME280;11096;51.338;12.524;2023-03-26T00:16:56;99097.44;;;11.46;nan
21863;BME280;11096;51.338;12.524;2023-03-26T00:19:22;99094.44;;;11.60;nan
21863;BME280;11096;51.338;12.524;2023-03-26T00:21:47;99094.53;;;11.20;nan
21863;BME280;11096;51.338;12.524;2023-03-26T00:24:13;99092.75;;;11.01;nan
21863;BME280;11096;51.338;12.524;2023-03-26T00:26:42;99088.81;;;11.45;nan
21863;BME280;11096;51.338;12.524;2023-03-26T00:29:08;99097.16;;;11.49;nan
21863;BME280;11096;51.338;12.524;2023-03-26T00:31:37;99089.22;;;11.50;nan
21863;BME280;11096;51.338;12.524;2023-03-26T00:34:04;99090.56;;;11.06;nan
21863;BME280;11096;51.338;12.524;2023-03-26T00:36:30;99089.69;;;10.76;nan
21863;BME280;11096;51.338;12.524;2023-03-26T00:38:55;99088.63;;;10.88;nan
21863;BME280;11096;51.338;12.524;2023-03-26T00:41:22;99097.13;;;11.10;nan
21863;BME280;11096;51.338;12.524;2023-03-26T00:43:54;99092.63;;;11.41;nan
21863;BME280;11096;51.338;12.524;2023-03-26T00:46:22;99094.66;;;11.08;nan
21863;BME280;11096;51.338;12.524;2023-03-26T00:48:47;99089.75;;;11.34;nan
21863;BME280;11096;51.338;12.524;2023-03-26T00:51:15;99088.38;;;11.11;nan
21863;BME280;11096;51.338;12.524;2023-03-26T00:53:43;99091.13;;;11.38;nan
21863;BME280;11096;51.338;12.524;2023-03-26T00:56:09;99091.41;;;11.45;nan
21863;BME280;11096;51.338;12.524;2023-03-26T00:58:36;99088.66;;;11.17;nan
21863;BME280;11096;51.338;12.524;2023-03-26T01:01:05;99092.41;;;10.74;nan
21863;BME280;11096;51.338;12.524;2023-03-26T01:03:33;99087.53;;;11.01;nan
21863;BME280;11096;51.338;12.524;2023-03-26T01:06:07;99082.84;;;10.85;nan
21863;BME280;11096;51.338;12.524;2023-03-26T01:08:41;99091.09;;;11.00;nan
21863;BME280;11096;51.338;12.524;2023-03-26T01:11:22;99090.25;;;10.89;nan
21863;BME280;11096;51.338;12.524;2023-03-26T01:13:53;99087.56;;;11.20;nan
21863;BME280;11096;51.338;12.524;2023-03-26T01:16:43;99091.69;;;11.42;nan
21863;BME280;11096;51.338;12.524;2023-03-26T01:22:14;99095.88;;;11.04;nan
21863;BME280;11096;51.338;12.524;2023-03-26T01:24:40;99091.88;;;10.81;nan
21863;BME280;11096;51.338;12.524;2023-03-26T01:30:28;99091.34;;;10.87;nan
21863;BME280;11096;51.338;12.524;2023-03-26T01:38:21;99077.53;;;10.86;nan
21863;BME280;11096;51.338;12.524;2023-03-26T01:40:54;99087.22;;;10.84;nan
21863;BME280;11096;51.338;12.524;2023-03-26T01:43:35;99087.19;;;10.74;nan
21863;BME280;11096;51.338;12.524;2023-03-26T01:46:05;99092.19;;;11.07;nan
21863;BME280;11096;51.338;12.524;2023-03-26T01:48:34;99088.03;;;10.75;nan
21863;BME280;11096;51.338;12.524;2023-03-26T01:51:02;99086.56;;;10.42;nan
21863;BME280;11096;51.338;12.524;2023-03-26T01:53:28;99088.56;;;10.38;nan
21863;BME280;11096;51.338;12.524;2023-03-26T01:58:54;99086.47;;;11.13;nan
21863;BME280;11096;51.338;12.524;2023-03-26T02:07:16;99086.53;;;10.82;nan
21863;BME280;11096;51.338;12.524;2023-03-26T02:09:49;99082.78;;;10.65;nan
21863;BME280;11096;51.338;12.524;2023-03-26T02:12:17;99083.69;;;10.95;nan
21863;BME280;11096;51.338;12.524;2023-03-26T02:14:44;99076.31;;;11.10;nan
21863;BME280;11096;51.338;12.524;2023-03-26T02:17:10;99078.13;;;11.19;nan
21863;BME280;11096;51.338;12.524;2023-03-26T02:19:37;99075.75;;;10.96;nan
21863;BME280;11096;51.338;12.524;2023-03-26T02:22:10;99076.22;;;11.41;nan
21863;BME280;11096;51.338;12.524;2023-03-26T02:24:42;99073.44;;;10.93;nan
21863;BME280;11096;51.338;12.524;2023-03-26T02:27:07;99064.22;;;10.70;nan
21863;BME280;11096;51.338;12.524;2023-03-26T02:29:37;99073.88;;;11.18;nan
21863;BME280;11096;51.338;12.524;2023-03-26T02:32:05;99074.94;;;10.86;nan
21863;BME280;11096;51.338;12.524;2023-03-26T02:34:30;99073.03;;;10.88;nan
21863;BME280;11096;51.338;12.524;2023-03-26T02:36:56;99070.78;;;10.34;nan
21863;BME280;11096;51.338;12.524;2023-03-26T02:39:22;99080.00;;;10.47;nan
21863;BME280;11096;51.338;12.524;2023-03-26T02:41:48;99077.53;;;10.36;nan
21863;BME280;11096;51.338;12.524;2023-03-26T02:44:13;99066.75;;;11.01;nan
21863;BME280;11096;51.338;12.524;2023-03-26T02:46:39;99069.63;;;10.47;nan
21863;BME280;11096;51.338;12.524;2023-03-26T02:49:05;99071.56;;;10.55;nan
21863;BME280;11096;51.338;12.524;2023-03-26T02:51:30;99068.06;;;10.66;nan
21863;BME280;11096;51.338;12.524;2023-03-26T02:54:02;99071.63;;;10.34;nan
21863;BME280;11096;51.338;12.524;2023-03-26T02:56:28;99064.22;;;10.08;nan
21863;BME280;11096;51.338;12.524;2023-03-26T02:58:54;99063.88;;;10.23;nan
21863;BME280;11096;51.338;12.524;2023-03-26T03:01:20;99061.84;;;10.57;nan
21863;BME280;11096;51.338;12.524;2023-03-26T03:03:47;99063.28;;;10.40;nan
21863;BME280;11096;51.338;12.524;2023-03-26T03:06:13;99060.84;;;10.18;nan
21863;BME280;11096;51.338;12.524;2023-03-26T03:08:41;99057.63;;;10.56;nan
21863;BME280;11096;51.338;12.524;2023-03-26T03:11:09;99055.97;;;10.24;nan
21863;BME280;11096;51.338;12.524;2023-03-26T03:13:35;99057.06;;;10.52;nan
21863;BME280;11096;51.338;12.524;2023-03-26T03:16:01;99063.34;;;10.50;nan
21863;BME280;11096;51.338;12.524;2023-03-26T03:18:26;99058.91;;;10.81;nan
21863;BME280;11096;51.338;12.524;2023-03-26T03:20:52;99064.25;;;10.89;nan
21863;BME280;11096;51.338;12.524;2023-03-26T03:23:18;99056.19;;;11.02;nan
21863;BME280;11096;51.338;12.524;2023-03-26T03:25:43;99055.66;;;10.99;nan
21863;BME280;11096;51.338;12.524;2023-03-26T03:28:09;99047.25;;;10.66;nan
21863;BME280;11096;51.338;12.524;2023-03-26T03:30:35;99052.47;;;10.66;nan
21863;BME280;11096;51.338;12.524;2023-03-26T03:33:01;99057.28;;;10.40;nan
21863;BME280;11096;51.338;12.524;2023-03-26T03:35:27;99040.75;;;10.41;nan
21863;BME280;11096;51.338;12.524;2023-03-26T03:37:55;99041.78;;;10.28;nan
21863;BME280;11096;51.338;12.524;2023-03-26T03:40:20;99048.41;;;10.12;nan
21863;BME280;11096;51.338;12.524;2023-03-26T03:42:46;99032.84;;;10.42;nan
21863;BME280;11096;51.338;12.524;2023-03-26T03:45:11;99034.84;;;10.29;nan
21863;BME280;11096;51.338;12.524;2023-03-26T03:47:37;99041.63;;;10.51;nan
21863;BME280;11096;51.338;12.524;2023-03-26T03:50:03;99035.38;;;10.63;nan
21863;BME280;11096;51.338;12.524;2023-03-26T03:52:29;99038.56;;;10.36;nan
21863;BME280;11096;51.338;12.524;2023-03-26T03:54:55;99040.31;;;10.36;nan
21863;BME280;11096;51.338;12.524;2023-03-26T03:57:22;99033.88;;;10.30;nan
21863;BME280;11096;51.338;12.524;2023-03-26T03:59:48;99041.13;;;10.05;nan
21863;BME280;11096;51.338;12.524;2023-03-26T04:02:14;99042.19;;;10.24;nan
21863;BME280;11096;51.338;12.524;2023-03-26T04:04:50;99042.69;;;10.18;nan
21863;BME280;11096;51.338;12.524;2023-03-26T04:07:16;99047.88;;;10.18;nan
21863;BME280;11096;51.338;12.524;2023-03-26T04:09:41;99036.66;;;10.48;nan
21863;BME280;11096;51.338;12.524;2023-03-26T04:12:07;99047.28;;;10.04;nan
21863;BME280;11096;51.338;12.524;2023-03-26T04:14:33;99044.03;;;10.43;nan
21863;BME280;11096;51.338;12.524;2023-03-26T04:16:58;99048.50;;;10.31;nan
21863;BME280;11096;51.338;12.524;2023-03-26T04:19:24;99047.66;;;9.79;nan
21863;BME280;11096;51.338;12.524;2023-03-26T04:21:51;99051.25;;;10.08;nan
21863;BME280;11096;51.338;12.524;2023-03-26T04:24:17;99056.53;;;9.97;nan
21863;BME280;11096;51.338;12.524;2023-03-26T04:26:42;99047.50;;;10.01;nan
21863;BME280;11096;51.338;12.524;2023-03-26T04:29:09;99046.53;;;9.93;nan
21863;BME280;11096;51.338;12.524;2023-03-26T04:31:37;99056.16;;;10.02;nan
21863;BME280;11096;51.338;12.524;2023-03-26T04:34:06;99052.78;;;10.21;nan
21863;BME280;11096;51.338;12.524;2023-03-26T04:36:37;99045.44;;;10.26;nan
21863;BME280;11096;51.338;12.524;2023-03-26T04:39:05;99049.25;;;10.52;nan
21863;BME280;11096;51.338;12.524;2023-03-26T04:41:31;99044.41;;;10.38;nan
21863;BME280;11096;51.338;12.524;2023-03-26T04:43:57;99049.38;;;10.41;nan
21863;BME280;11096;51.338;12.524;2023-03-26T04:46:26;99046.34;;;10.36;nan
21863;BME280;11096;51.338;12.524;2023-03-26T04:48:53;99045.38;;;10.37;nan
21863;BME280;11096;51.338;12.524;2023-03-26T04:51:24;99052.91;;;10.40;nan
21863;BME280;11096;51.338;12.524;2023-03-26T04:53:53;99042.19;;;10.24;nan
21863;BME280;11096;51.338;12.524;2023-03-26T04:56:53;99040.44;;;10.74;nan
21863;BME280;11096;51.338;12.524;2023-03-26T04:59:27;99036.28;;;10.52;nan
21863;BME280;11096;51.338;12.524;2023-03-26T05:01:56;99039.56;;;10.24;nan
21863;BME280;11096;51.338;12.524;2023-03-26T05:04:23;99052.47;;;10.35;nan
21863;BME280;11096;51.338;12.524;2023-03-26T05:06:49;99042.69;;;10.18;nan
21863;BME280;11096;51.338;12.524;2023-03-26T05:09:15;99042.84;;;9.95;nan
21863;BME280;11096;51.338;12.524;2023-03-26T05:11:40;99039.50;;;10.35;nan
21863;BME280;11096;51.338;12.524;2023-03-26T05:14:06;99037.25;;;10.51;nan
21863;BME280;11096;51.338;12.524;2023-03-26T05:16:32;99048.31;;;10.23;nan
21863;BME280;11096;51.338;12.524;2023-03-26T05:18:58;99039.28;;;10.58;nan
21863;BME280;11096;51.338;12.524;2023-03-26T05:21:23;99040.56;;;10.73;nan
21863;BME280;11096;51.338;12.524;2023-03-26T05:23:49;99043.66;;;10.47;nan
21863;BME280;11096;51.338;12.524;2023-03-26T05:26:14;99040.69;;;10.62;nan
21863;BME280;11096;51.338;12.524;2023-03-26T05:28:40;99041.59;;;10.41;nan
21863;BME280;11096;51.338;12.524;2023-03-26T05:31:05;99045.56;;;10.55;nan
21863;BME280;11096;51.338;12.524;2023-03-26T05:33:32;99051.22;;;10.70;nan
21863;BME280;11096;51.338;12.524;2023-03-26T05:36:03;99045.91;;;10.81;nan
21863;BME280;11096;51.338;12.524;2023-03-26T05:38:30;99040.47;;;11.04;nan
21863;BME280;11096;51.338;12.524;2023-03-26T05:41:03;99048.97;;;11.06;nan
21863;BME280;11096;51.338;12.524;2023-03-26T05:43:30;99046.34;;;10.46;nan
21863;BME280;11096;51.338;12.524;2023-03-26T05:45:55;99043.03;;;10.84;nan
21863;BME280;11096;51.338;12.524;2023-03-26T05:48:21;99037.97;;;10.83;nan
21863;BME280;11096;51.338;12.524;2023-03-26T05:50:51;99048.63;;;10.70;nan
21863;BME280;11096;51.338;12.524;2023-03-26T05:53:17;99047.56;;;10.82;nan
21863;BME280;11096;51.338;12.524;2023-03-26T05:55:44;99041.78;;;10.69;nan
21863;BME280;11096;51.338;12.524;2023-03-26T05:58:11;99051.41;;;11.17;nan
21863;BME280;11096;51.338;12.524;2023-03-26T06:00:37;99050.06;;;11.42;nan
21863;BME280;11096;51.338;12.524;2023-03-26T06:03:03;99038.56;;;11.45;nan
21863;BME280;11096;51.338;12.524;2023-03-26T06:05:32;99033.88;;;11.58;nan
21863;BME280;11096;51.338;12.524;2023-03-26T06:08:01;99032.25;;;11.67;nan
21863;BME280;11096;51.338;12.524;2023-03-26T06:10:27;99025.09;;;11.69;nan
21863;BME280;11096;51.338;12.524;2023-03-26T06:12:53;99021.72;;;11.49;nan
21863;BME280;11096;51.338;12.524;2023-03-26T06:15:18;99027.56;;;11.70;nan
21863;BME280;11096;51.338;12.524;2023-03-26T06:17:44;99023.84;;;11.82;nan
21863;BME280;11096;51.338;12.524;2023-03-26T06:20:10;99027.59;;;11.51;nan
21863;BME280;11096;51.338;12.524;2023-03-26T06:22:36;99032.78;;;11.70;nan
21863;BME280;11096;51.338;12.524;2023-03-26T06:25:01;99031.56;;;11.55;nan
21863;BME280;11096;51.338;12.524;2023-03-26T06:27:27;99032.25;;;11.57;nan
21863;BME280;11096;51.338;12.524;2023-03-26T06:29:52;99024.31;;;11.49;nan
21863;BME280;11096;51.338;12.524;2023-03-26T06:32:18;99027.28;;;11.64;nan
21863;BME280;11096;51.338;12.524;2023-03-26T06:34:44;99047.41;;;8.42;nan
21863;BME280;11096;51.338;12.524;2023-03-26T06:37:09;99049.03;;;7.86;nan
21863;BME280;11096;51.338;12.524;2023-03-26T06:39:35;99044.63;;;7.64;nan
21863;BME280;11096;51.338;12.524;2023-03-26T06:42:00;99046.97;;;7.67;nan
21863;BME280;11096;51.338;12.524;2023-03-26T06:44:26;99047.72;;;7.81;nan
21863;BME280;11096;51.338;12.524;2023-03-26T06:46:51;99042.41;;;7.82;nan
21863;BME280;11096;51.338;12.524;2023-03-26T06:49:16;99043.94;;;7.85;nan
21863;BME280;11096;51.338;12.524;2023-03-26T06:51:42;99045.47;;;7.87;nan
21863;BME280;11096;51.338;12.524;2023-03-26T06:54:08;99047.38;;;7.85;nan
21863;BME280;11096;51.338;12.524;2023-03-26T06:56:33;99046.69;;;7.94;nan
21863;BME280;11096;51.338;12.524;2023-03-26T06:58:58;99043.63;;;8.01;nan
21863;BME280;11096;51.338;12.524;2023-03-26T07:01:24;99045.41;;;8.23;nan
21863;BME280;11096;51.338;12.524;2023-03-26T07:03:50;99042.94;;;8.21;nan
21863;BME280;11096;51.338;12.524;2023-03-26T07:06:15;99050.00;;;8.30;nan
21863;BME280;11096;51.338;12.524;2023-03-26T07:08:40;99042.59;;;8.37;nan
21863;BME280;11096;51.338;12.524;2023-03-26T07:11:07;99043.19;;;8.41;nan
21863;BME280;11096;51.338;12.524;2023-03-26T07:13:32;99051.78;;;8.52;nan
21863;BME280;11096;51.338;12.524;2023-03-26T07:15:57;99029.28;;;11.13;nan
21863;BME280;11096;51.338;12.524;2023-03-26T07:18:23;99027.88;;;10.99;nan
21863;BME280;11096;51.338;12.524;2023-03-26T07:20:49;99017.22;;;11.22;nan
21863;BME280;11096;51.338;12.524;2023-03-26T07:23:15;99014.88;;;11.18;nan
21863;BME280;11096;51.338;12.524;2023-03-26T07:25:45;99012.28;;;11.38;nan
21863;BME280;11096;51.338;12.524;2023-03-26T07:34:05;99000.28;;;11.84;nan
21863;BME280;11096;51.338;12.524;2023-03-26T07:39:44;98992.97;;;12.07;nan
21863;BME280;11096;51.338;12.524;2023-03-26T07:45:24;98988.53;;;12.17;nan
21863;BME280;11096;51.338;12.524;2023-03-26T07:47:53;98987.66;;;11.99;nan
21863;BME280;11096;51.338;12.524;2023-03-26T07:50:22;98985.78;;;12.19;nan
21863;BME280;11096;51.338;12.524;2023-03-26T07:52:49;98982.38;;;12.64;nan
21863;BME280;11096;51.338;12.524;2023-03-26T07:55:15;98985.97;;;12.99;nan
21863;BME280;11096;51.338;12.524;2023-03-26T08:00:36;98978.88;;;12.91;nan
21863;BME280;11096;51.338;12.524;2023-03-26T08:05:36;98987.06;;;10.61;nan
21863;BME280;11096;51.338;12.524;2023-03-26T08:13:52;98975.78;;;10.31;nan
21863;BME280;11096;51.338;12.524;2023-03-26T08:16:32;98972.56;;;10.39;nan
21863;BME280;11096;51.338;12.524;2023-03-26T08:22:34;98968.50;;;10.25;nan
21863;BME280;11096;51.338;12.524;2023-03-26T08:25:25;98967.38;;;10.48;nan
21863;BME280;11096;51.338;12.524;2023-03-26T08:28:15;98970.94;;;10.67;nan
21863;BME280;11096;51.338;12.524;2023-03-26T08:30:43;98965.44;;;10.50;nan
21863;BME280;11096;51.338;12.524;2023-03-26T08:33:13;98964.78;;;10.68;nan
21863;BME280;11096;51.338;12.524;2023-03-26T08:35:41;98964.13;;;10.85;nan
21863;BME280;11096;51.338;12.524;2023-03-26T08:38:11;98956.47;;;10.74;nan
21863;BME280;11096;51.338;12.524;2023-03-26T08:57:19;98943.09;;;12.02;nan
21863;BME280;11096;51.338;12.524;2023-03-26T09:02:39;98932.47;;;12.41;nan
21863;BME280;11096;51.338;12.524;2023-03-26T09:08:15;98936.66;;;12.06;nan
21863;BME280;11096;51.338;12.524;2023-03-26T09:11:02;98926.06;;;12.08;nan
21863;BME280;11096;51.338;12.524;2023-03-26T09:14:07;98922.88;;;12.95;nan
21863;BME280;11096;51.338;12.524;2023-03-26T09:20:25;98919.84;;;14.29;nan
21863;BME280;11096;51.338;12.524;2023-03-26T09:26:09;98909.25;;;14.38;nan
21863;BME280;11096;51.338;12.524;2023-03-26T09:32:12;98907.88;;;15.10;nan
21863;BME280;11096;51.338;12.524;2023-03-26T09:37:55;98898.22;;;14.86;nan
21863;BME280;11096;51.338;12.524;2023-03-26T09:40:34;98898.00;;;14.38;nan
21863;BME280;11096;51.338;12.524;2023-03-26T09:57:23;98900.94;;;13.84;nan
21863;BME280;11096;51.338;12.524;2023-03-26T10:00:07;98896.78;;;14.08;nan
21863;BME280;11096;51.338;12.524;2023-03-26T10:11:13;98870.69;;;17.99;nan
21863;BME280;11096;51.338;12.524;2023-03-26T10:14:02;98855.13;;;22.01;nan
21863;BME280;11096;51.338;12.524;2023-03-26T10:45:44;98798.25;;;22.73;nan
21863;BME280;11096;51.338;12.524;2023-03-26T10:53:48;98807.47;;;18.93;nan
21863;BME280;11096;51.338;12.524;2023-03-26T10:58:49;98794.75;;;19.03;nan
21863;BME280;11096;51.338;12.524;2023-03-26T11:04:26;98807.41;;;20.11;nan
21863;BME280;11096;51.338;12.524;2023-03-26T11:07:09;98794.34;;;22.26;nan
21863;BME280;11096;51.338;12.524;2023-03-26T11:09:51;98796.72;;;21.64;nan
21863;BME280;11096;51.338;12.524;2023-03-26T11:12:36;98790.75;;;21.10;nan
21863;BME280;11096;51.338;12.524;2023-03-26T11:15:27;98793.66;;;20.69;nan
21863;BME280;11096;51.338;12.524;2023-03-26T11:20:34;98798.31;;;17.67;nan
21863;BME280;11096;51.338;12.524;2023-03-26T11:23:17;98802.19;;;16.67;nan
21863;BME280;11096;51.338;12.524;2023-03-26T11:26:01;98799.16;;;16.78;nan
21863;BME280;11096;51.338;12.524;2023-03-26T11:33:42;98794.22;;;17.94;nan
21863;BME280;11096;51.338;12.524;2023-03-26T11:36:15;98792.81;;;17.62;nan
21863;BME280;11096;51.338;12.524;2023-03-26T11:38:46;98786.34;;;17.79;nan
21863;BME280;11096;51.338;12.524;2023-03-26T11:41:19;98790.31;;;16.94;nan
21863;BME280;11096;51.338;12.524;2023-03-26T11:43:49;98783.31;;;16.48;nan
21863;BME280;11096;51.338;12.524;2023-03-26T11:46:19;98780.81;;;16.17;nan
21863;BME280;11096;51.338;12.524;2023-03-26T11:49:07;98783.63;;;15.45;nan
21863;BME280;11096;51.338;12.524;2023-03-26T11:51:36;98779.63;;;15.57;nan
21863;BME280;11096;51.338;12.524;2023-03-26T11:54:05;98786.44;;;15.35;nan
21863;BME280;11096;51.338;12.524;2023-03-26T11:56:51;98783.84;;;15.27;nan
21863;BME280;11096;51.338;12.524;2023-03-26T11:59:41;98787.78;;;15.23;nan
21863;BME280;11096;51.338;12.524;2023-03-26T12:04:35;98784.94;;;15.01;nan
21863;BME280;11096;51.338;12.524;2023-03-26T12:09:56;98784.44;;;15.45;nan
21863;BME280;11096;51.338;12.524;2023-03-26T12:12:27;98776.81;;;15.36;nan
21863;BME280;11096;51.338;12.524;2023-03-26T12:14:53;98767.16;;;15.36;nan
21863;BME280;11096;51.338;12.524;2023-03-26T12:17:32;98763.59;;;15.60;nan
21863;BME280;11096;51.338;12.524;2023-03-26T12:19:58;98767.56;;;16.10;nan
21863;BME280;11096;51.338;12.524;2023-03-26T12:22:35;98758.25;;;16.69;nan
21863;BME280;11096;51.338;12.524;2023-03-26T12:25:18;98759.91;;;16.85;nan
21863;BME280;11096;51.338;12.524;2023-03-26T12:27:58;98751.59;;;16.81;nan
21863;BME280;11096;51.338;12.524;2023-03-26T12:30:34;98744.44;;;16.37;nan
21863;BME280;11096;51.338;12.524;2023-03-26T12:33:28;98743.53;;;16.83;nan
21863;BME280;11096;51.338;12.524;2023-03-26T12:35:59;98743.63;;;16.37;nan
21863;BME280;11096;51.338;12.524;2023-03-26T12:38:40;98742.25;;;16.41;nan
21863;BME280;11096;51.338;12.524;2023-03-26T12:41:15;98747.13;;;15.83;nan
21863;BME280;11096;51.338;12.524;2023-03-26T12:43:43;98739.72;;;15.55;nan
21863;BME280;11096;51.338;12.524;2023-03-26T12:46:28;98754.00;;;15.05;nan
21863;BME280;11096;51.338;12.524;2023-03-26T12:48:58;98761.88;;;13.82;nan
21863;BME280;11096;51.338;12.524;2023-03-26T12:51:49;98765.41;;;13.65;nan
21863;BME280;11096;51.338;12.524;2023-03-26T12:57:20;98781.25;;;12.95;nan
21863;BME280;11096;51.338;12.524;2023-03-26T13:21:28;98751.97;;;25.52;nan
21863;BME280;11096;51.338;12.524;2023-03-26T13:24:36;98735.38;;;27.57;nan
21863;BME280;11096;51.338;12.524;2023-03-26T13:30:01;98725.06;;;28.63;nan
21863;BME280;11096;51.338;12.524;2023-03-26T13:32:52;98727.47;;;29.12;nan
21863;BME280;11096;51.338;12.524;2023-03-26T13:36:09;98716.63;;;29.49;nan
21863;BME280;11096;51.338;12.524;2023-03-26T13:43:36;98711.84;;;28.09;nan
21863;BME280;11096;51.338;12.524;2023-03-26T13:48:53;98713.88;;;26.08;nan
21863;BME280;11096;51.338;12.524;2023-03-26T13:51:29;98716.66;;;27.08;nan
21863;BME280;11096;51.338;12.524;2023-03-26T13:54:03;98716.22;;;25.07;nan
21863;BME280;11096;51.338;12.524;2023-03-26T13:56:37;98720.16;;;25.28;nan
21863;BME280;11096;51.338;12.524;2023-03-26T13:59:13;98718.47;;;24.75;nan
21863;BME280;11096;51.338;12.524;2023-03-26T14:01:46;98718.84;;;24.55;nan
21863;BME280;11096;51.338;12.524;2023-03-26T14:04:32;98716.72;;;23.19;nan
21863;BME280;11096;51.338;12.524;2023-03-26T14:09:55;98721.72;;;24.77;nan
21863;BME280;11096;51.338;12.524;2023-03-26T14:15:05;98707.75;;;24.70;nan
21863;BME280;11096;51.338;12.524;2023-03-26T14:39:30;98703.94;;;24.66;nan
21863;BME280;11096;51.338;12.524;2023-03-26T14:45:07;98706.22;;;24.85;nan
21863;BME280;11096;51.338;12.524;2023-03-26T14:48:13;98698.75;;;24.47;nan
21863;BME280;11096;51.338;12.524;2023-03-26T14:53:41;98699.38;;;23.95;nan
21863;BME280;11096;51.338;12.524;2023-03-26T15:14:02;98687.97;;;22.61;nan
21863;BME280;11096;51.338;12.524;2023-03-26T15:33:42;98692.72;;;22.02;nan
21863;BME280;11096;51.338;12.524;2023-03-26T15:36:36;98696.25;;;22.89;nan
21863;BME280;11096;51.338;12.524;2023-03-26T15:42:10;98700.75;;;21.12;nan
21863;BME280;11096;51.338;12.524;2023-03-26T15:44:56;98698.63;;;24.42;nan
21863;BME280;11096;51.338;12.524;2023-03-26T15:56:24;98692.94;;;24.38;nan
21863;BME280;11096;51.338;12.524;2023-03-26T16:07:05;98700.34;;;24.25;nan
21863;BME280;11096;51.338;12.524;2023-03-26T16:09:43;98690.41;;;22.81;nan
21863;BME280;11096;51.338;12.524;2023-03-26T16:15:04;98694.63;;;23.86;nan
21863;BME280;11096;51.338;12.524;2023-03-26T16:34:17;98680.00;;;24.18;nan
21863;BME280;11096;51.338;12.524;2023-03-26T16:36:45;98688.81;;;23.77;nan
21863;BME280;11096;51.338;12.524;2023-03-26T16:39:22;98687.50;;;23.98;nan
21863;BME280;11096;51.338;12.524;2023-03-26T16:41:55;98683.31;;;23.78;nan
21863;BME280;11096;51.338;12.524;2023-03-26T16:47:16;98681.09;;;23.45;nan
21863;BME280;11096;51.338;12.524;2023-03-26T16:50:01;98685.94;;;23.18;nan
21863;BME280;11096;51.338;12.524;2023-03-26T16:57:42;98676.50;;;23.22;nan
21863;BME280;11096;51.338;12.524;2023-03-26T17:08:35;98680.81;;;24.07;nan
21863;BME280;11096;51.338;12.524;2023-03-26T17:14:11;98681.47;;;23.49;nan
21863;BME280;11096;51.338;12.524;2023-03-26T17:16:48;98686.66;;;23.25;nan
21863;BME280;11096;51.338;12.524;2023-03-26T17:25:24;98694.31;;;23.15;nan
21863;BME280;11096;51.338;12.524;2023-03-26T17:31:34;98688.41;;;22.76;nan
21863;BME280;11096;51.338;12.524;2023-03-26T17:33:40;98692.66;;;22.15;nan
21863;BME280;11096;51.338;12.524;2023-03-26T17:36:39;98691.50;;;22.55;nan
21863;BME280;11096;51.338;12.524;2023-03-26T17:39:18;98698.22;;;22.32;nan
21863;BME280;11096;51.338;12.524;2023-03-26T17:41:50;98697.06;;;21.96;nan
21863;BME280;11096;51.338;12.524;2023-03-26T17:47:37;98698.00;;;22.34;nan
21863;BME280;11096;51.338;12.524;2023-03-26T17:50:13;98701.34;;;22.47;nan
21863;BME280;11096;51.338;12.524;2023-03-26T17:52:48;98702.66;;;22.38;nan
21863;BME280;11096;51.338;12.524;2023-03-26T17:55:19;98705.13;;;22.33;nan
21863;BME280;11096;51.338;12.524;2023-03-26T17:57:59;98704.16;;;22.53;nan
21863;BME280;11096;51.338;12.524;2023-03-26T18:00:32;98701.50;;;22.71;nan
21863;BME280;11096;51.338;12.524;2023-03-26T18:03:01;98706.06;;;22.64;nan
21863;BME280;11096;51.338;12.524;2023-03-26T18:05:32;98711.06;;;22.54;nan
21863;BME280;11096;51.338;12.524;2023-03-26T18:08:16;98709.69;;;22.69;nan
21863;BME280;11096;51.338;12.524;2023-03-26T18:16:38;98710.09;;;22.66;nan
21863;BME280;11096;51.338;12.524;2023-03-26T18:19:10;98707.00;;;22.51;nan
21863;BME280;11096;51.338;12.524;2023-03-26T18:21:44;98706.00;;;21.95;nan
21863;BME280;11096;51.338;12.524;2023-03-26T18:27:17;98712.91;;;21.71;nan
21863;BME280;11096;51.338;12.524;2023-03-26T18:32:46;98716.06;;;20.90;nan
21863;BME280;11096;51.338;12.524;2023-03-26T18:35:20;98714.78;;;20.99;nan
21863;BME280;11096;51.338;12.524;2023-03-26T18:37:47;98710.63;;;21.30;nan
21863;BME280;11096;51.338;12.524;2023-03-26T18:40:19;98711.47;;;21.23;nan
21863;BME280;11096;51.338;12.524;2023-03-26T18:42:50;98701.28;;;21.72;nan
21863;BME280;11096;51.338;12.524;2023-03-26T18:45:49;98705.38;;;21.68;nan
21863;BME280;11096;51.338;12.524;2023-03-26T18:48:18;98712.06;;;21.39;nan
21863;BME280;11096;51.338;12.524;2023-03-26T18:50:47;98700.84;;;21.37;nan
21863;BME280;11096;51.338;12.524;2023-03-26T18:53:24;98705.88;;;21.52;nan
21863;BME280;11096;51.338;12.524;2023-03-26T18:55:50;98705.53;;;21.41;nan
21863;BME280;11096;51.338;12.524;2023-03-26T18:58:25;98703.19;;;21.58;nan
21863;BME280;11096;51.338;12.524;2023-03-26T19:00:59;98700.97;;;21.55;nan
21863;BME280;11096;51.338;12.524;2023-03-26T19:03:27;98699.97;;;21.56;nan
21863;BME280;11096;51.338;12.524;2023-03-26T19:05:56;98703.19;;;21.58;nan
21863;BME280;11096;51.338;12.524;2023-03-26T19:08:23;98696.25;;;21.64;nan
21863;BME280;11096;51.338;12.524;2023-03-26T19:10:50;98696.38;;;21.44;nan
21863;BME280;11096;51.338;12.524;2023-03-26T19:13:20;98699.09;;;21.62;nan
21863;BME280;11096;51.338;12.524;2023-03-26T19:15:46;98703.91;;;21.79;nan
21863;BME280;11096;51.338;12.524;2023-03-26T19:18:19;98697.13;;;21.83;nan
21863;BME280;11096;51.338;12.524;2023-03-26T19:20:52;98700.81;;;21.82;nan